Time,TemperatureF,DewpointF,PressureIn,WindDirection,WindDirectionDegrees,WindSpeedMPH,WindSpeedGustMPH,Humidity,HourlyPrecipIn,Conditions,Clouds,dailyrainin,SoftwareType,DateUTC
2013-02-19 00:03:00,47.6,33.6,29.83,NW,308,3.0,14.0,58,0.00,,,0.00,WUHU216DAVISVP2,2013-02-19 08:03:00,
2013-02-19 00:08:00,47.3,33.3,29.83,WNW,286,6.0,14.0,58,0.00,,,0.00,WUHU216DAVISVP2,2013-02-19 08:08:00,
2013-02-19 00:13:00,47.2,33.7,29.82,WNW,286,3.0,14.0,59,0.00,,,0.00,WUHU216DAVISVP2,2013-02-19 08:13:00,
2013-02-19 00:19:00,47.0,33.9,29.82,WSW,241,11.0,20.0,60,0.00,,,0.00,WUHU216DAVISVP2,2013-02-19 08:19:00,
2013-02-19 00:24:00,47.0,33.8,29.82,WSW,252,16.0,20.0,60,0.00,,,0.00,WUHU216DAVISVP2,2013-02-19 08:24:00,
2013-02-19 00:29:00,46.9,33.7,29.82,WSW,237,16.0,20.0,60,0.00,,,0.00,WUHU216DAVISVP2,2013-02-19 08:29:00,
2013-02-19 00:34:00,47.0,33.8,29.82,SW,215,18.0,22.0,60,0.00,,,0.00,WUHU216DAVISVP2,2013-02-19 08:34:00,
2013-02-19 00:40:00,47.0,33.9,29.82,SW,229,12.0,22.0,60,0.00,,,0.00,WUHU216DAVISVP2,2013-02-19 08:40:00,
2013-02-19 00:45:00,46.9,34.2,29.82,SW,236,11.0,22.0,61,0.00,,,0.00,WUHU216DAVISVP2,2013-02-19 08:45:00,
2013-02-19 00:50:00,46.8,34.1,29.82,SSW,194,6.0,22.0,61,0.00,,,0.00,WUHU216DAVISVP2,2013-02-19 08:50:00,
2013-02-19 00:55:00,46.7,34.5,29.82,SW,214,15.0,22.0,62,0.00,,,0.00,WUHU216DAVISVP2,2013-02-19 08:55:00,
2013-02-19 01:00:00,46.6,34.4,29.82,SW,216,8.0,20.0,62,0.00,,,0.00,WUHU216DAVISVP2,2013-02-19 09:00:00,
2013-02-19 01:06:00,46.5,34.3,29.81,SW,235,5.0,20.0,62,0.00,,,0.00,WUHU216DAVISVP2,2013-02-19 09:06:00,
2013-02-19 01:11:00,46.3,34.5,29.82,SW,216,10.0,20.0,63,0.00,,,0.00,WUHU216DAVISVP2,2013-02-19 09:11:00,
2013-02-19 01:16:00,46.3,34.4,29.82,WSW,246,4.0,19.0,63,0.00,,,0.00,WUHU216DAVISVP2,2013-02-19 09:16:00,
2013-02-19 01:21:00,46.2,34.3,29.81,South,169,7.0,19.0,63,0.00,,,0.00,WUHU216DAVISVP2,2013-02-19 09:21:00,
2013-02-19 01:27:00,46.3,34.4,29.81,SW,223,9.0,16.0,63,0.00,,,0.00,WUHU216DAVISVP2,2013-02-19 09:27:00,
2013-02-19 01:32:00,46.1,34.3,29.81,SW,235,11.0,17.0,63,0.00,,,0.00,WUHU216DAVISVP2,2013-02-19 09:32:00,
2013-02-19 01:37:00,46.1,34.3,29.81,WSW,253,11.0,17.0,63,0.00,,,0.00,WUHU216DAVISVP2,2013-02-19 09:37:00,
2013-02-19 01:43:00,45.9,34.1,29.81,SSW,211,7.0,17.0,63,0.00,,,0.00,WUHU216DAVISVP2,2013-02-19 09:43:00,
2013-02-19 01:48:00,45.8,34.0,29.81,WSW,242,3.0,14.0,63,0.00,,,0.00,WUHU216DAVISVP2,2013-02-19 09:48:00,
2013-02-19 01:53:00,45.6,33.8,29.80,North,355,4.0,14.0,63,0.00,,,0.00,WUHU216DAVISVP2,2013-02-19 09:53:00,
2013-02-19 01:58:00,45.5,33.7,29.80,North,355,0.0,14.0,63,0.00,,,0.00,WUHU216DAVISVP2,2013-02-19 09:58:00,
2013-02-19 02:03:00,45.4,33.6,29.80,SW,229,6.0,8.0,63,0.00,,,0.00,WUHU216DAVISVP2,2013-02-19 10:03:00,
2013-02-19 02:08:00,45.6,33.7,29.79,WSW,255,5.0,8.0,63,0.00,,,0.00,WUHU216DAVISVP2,2013-02-19 10:08:00,
2013-02-19 02:14:00,45.4,33.5,29.79,SW,221,3.0,9.0,63,0.00,,,0.00,WUHU216DAVISVP2,2013-02-19 10:14:00,
2013-02-19 02:19:00,45.3,33.4,29.79,SW,221,0.0,9.0,63,0.00,,,0.00,WUHU216DAVISVP2,2013-02-19 10:19:00,
2013-02-19 02:25:00,45.1,33.3,29.78,SSW,193,9.0,12.0,63,0.00,,,0.00,WUHU216DAVISVP2,2013-02-19 10:25:00,
2013-02-19 02:31:00,45.3,33.5,29.78,SW,217,9.0,12.0,63,0.00,,,0.00,WUHU216DAVISVP2,2013-02-19 10:31:00,
2013-02-19 02:37:00,45.5,33.3,29.78,SSW,209,3.0,12.0,62,0.00,,,0.00,WUHU216DAVISVP2,2013-02-19 10:37:00,
2013-02-19 02:42:00,45.3,33.1,29.78,SSW,209,2.0,9.0,62,0.00,,,0.00,WUHU216DAVISVP2,2013-02-19 10:42:00,
2013-02-19 02:47:00,45.1,32.9,29.78,SSW,209,2.0,9.0,62,0.00,,,0.00,WUHU216DAVISVP2,2013-02-19 10:47:00,
2013-02-19 02:53:00,44.6,32.5,29.78,SSW,209,2.0,8.0,62,0.00,,,0.00,WUHU216DAVISVP2,2013-02-19 10:53:00,
2013-02-19 02:58:00,43.6,32.3,29.78,ESE,115,4.0,7.0,64,0.00,,,0.00,WUHU216DAVISVP2,2013-02-19 10:58:00,
2013-02-19 03:03:00,43.1,32.2,29.78,ESE,115,3.0,7.0,65,0.00,,,0.00,WUHU216DAVISVP2,2013-02-19 11:03:00,
2013-02-19 03:08:00,42.9,31.6,29.78,ESE,115,0.0,7.0,64,0.00,,,0.00,WUHU216DAVISVP2,2013-02-19 11:08:00,
2013-02-19 03:13:00,42.6,31.7,29.78,ESE,115,2.0,7.0,65,0.00,,,0.00,WUHU216DAVISVP2,2013-02-19 11:13:00,
2013-02-19 03:18:00,42.2,31.4,29.78,ESE,115,3.0,7.0,65,0.00,,,0.00,WUHU216DAVISVP2,2013-02-19 11:18:00,
2013-02-19 03:23:00,41.8,31.4,29.78,ESE,115,0.0,4.0,66,0.00,,,0.00,WUHU216DAVISVP2,2013-02-19 11:23:00,
2013-02-19 03:28:00,41.5,31.4,29.77,ESE,115,1.0,3.0,67,0.00,,,0.00,WUHU216DAVISVP2,2013-02-19 11:28:00,
2013-02-19 03:33:00,41.2,31.2,29.77,ESE,115,0.0,3.0,67,0.00,,,0.00,WUHU216DAVISVP2,2013-02-19 11:33:00,
2013-02-19 03:39:00,40.7,30.7,29.77,ESE,115,0.0,3.0,67,0.00,,,0.00,WUHU216DAVISVP2,2013-02-19 11:39:00,
2013-02-19 03:44:00,40.2,30.6,29.77,ESE,115,0.0,3.0,68,0.00,,,0.00,WUHU216DAVISVP2,2013-02-19 11:44:00,
2013-02-19 03:49:00,39.4,29.4,29.78,ESE,115,0.0,3.0,67,0.00,,,0.00,WUHU216DAVISVP2,2013-02-19 11:49:00,
2013-02-19 03:56:00,37.4,28.2,29.78,ESE,115,0.0,3.0,69,0.00,,,0.00,WUHU216DAVISVP2,2013-02-19 11:56:00,
2013-02-19 04:04:00,36.6,28.5,29.77,ESE,115,0.0,3.0,72,0.00,,,0.00,WUHU216DAVISVP2,2013-02-19 12:04:00,
2013-02-19 04:09:00,36.0,27.9,29.77,ESE,115,3.0,3.0,72,0.00,,,0.00,WUHU216DAVISVP2,2013-02-19 12:09:00,
2013-02-19 04:14:00,35.5,28.1,29.77,ESE,115,2.0,4.0,74,0.00,,,0.00,WUHU216DAVISVP2,2013-02-19 12:14:00,
2013-02-19 04:20:00,35.5,27.8,29.77,ESE,115,3.0,4.0,73,0.00,,,0.00,WUHU216DAVISVP2,2013-02-19 12:20:00,
2013-02-19 04:25:00,35.1,27.7,29.77,ESE,115,2.0,4.0,74,0.00,,,0.00,WUHU216DAVISVP2,2013-02-19 12:25:00,
2013-02-19 04:30:00,34.8,27.4,29.77,ESE,115,2.0,4.0,74,0.00,,,0.00,WUHU216DAVISVP2,2013-02-19 12:30:00,
2013-02-19 04:35:00,34.6,27.5,29.77,ESE,115,3.0,4.0,75,0.00,,,0.00,WUHU216DAVISVP2,2013-02-19 12:35:00,
2013-02-19 04:40:00,34.6,27.5,29.77,ESE,115,0.0,4.0,75,0.00,,,0.00,WUHU216DAVISVP2,2013-02-19 12:40:00,
2013-02-19 04:45:00,34.6,27.8,29.77,ESE,115,0.0,4.0,76,0.00,,,0.00,WUHU216DAVISVP2,2013-02-19 12:45:00,
2013-02-19 04:51:00,35.4,29.2,29.77,ESE,115,3.0,5.0,78,0.00,,,0.00,WUHU216DAVISVP2,2013-02-19 12:51:00,
2013-02-19 04:56:00,36.3,30.1,29.78,ESE,115,0.0,5.0,78,0.00,,,0.00,WUHU216DAVISVP2,2013-02-19 12:56:00,
2013-02-19 05:01:00,37.4,31.2,29.77,ESE,115,3.0,8.0,78,0.00,,,0.00,WUHU216DAVISVP2,2013-02-19 13:01:00,
2013-02-19 05:07:00,38.2,30.7,29.77,ESE,115,2.0,8.0,74,0.00,,,0.00,WUHU216DAVISVP2,2013-02-19 13:07:00,
2013-02-19 05:12:00,38.8,31.3,29.78,ESE,115,3.0,8.0,74,0.00,,,0.00,WUHU216DAVISVP2,2013-02-19 13:12:00,
2013-02-19 05:18:00,38.7,31.1,29.78,ESE,115,2.0,8.0,74,0.00,,,0.00,WUHU216DAVISVP2,2013-02-19 13:18:00,
2013-02-19 05:23:00,38.7,31.1,29.78,ESE,115,2.0,7.0,74,0.00,,,0.00,WUHU216DAVISVP2,2013-02-19 13:23:00,
2013-02-19 05:28:00,38.8,30.9,29.78,ESE,115,2.0,7.0,73,0.00,,,0.00,WUHU216DAVISVP2,2013-02-19 13:28:00,
2013-02-19 05:33:00,38.8,31.3,29.78,ESE,115,3.0,7.0,74,0.00,,,0.00,WUHU216DAVISVP2,2013-02-19 13:33:00,
2013-02-19 05:39:00,38.9,31.7,29.78,ESE,115,2.0,7.0,75,0.00,,,0.00,WUHU216DAVISVP2,2013-02-19 13:39:00,
2013-02-19 05:44:00,39.5,32.3,29.78,ESE,115,0.0,4.0,75,0.00,,,0.00,WUHU216DAVISVP2,2013-02-19 13:44:00,
2013-02-19 05:50:00,41.6,34.3,29.78,WSW,244,12.0,16.0,75,0.00,,,0.00,WUHU216DAVISVP2,2013-02-19 13:50:00,
2013-02-19 05:55:00,43.5,34.1,29.78,WSW,248,15.0,18.0,69,0.00,,,0.00,WUHU216DAVISVP2,2013-02-19 13:55:00,
2013-02-19 06:01:00,43.8,33.6,29.78,West,260,8.0,18.0,67,0.00,,,0.00,WUHU216DAVISVP2,2013-02-19 14:01:00,
2013-02-19 06:06:00,43.8,33.6,29.78,West,259,11.0,18.0,67,0.00,,,0.00,WUHU216DAVISVP2,2013-02-19 14:06:00,
2013-02-19 06:11:00,43.8,33.2,29.78,NNW,331,2.0,18.0,66,0.00,,,0.00,WUHU216DAVISVP2,2013-02-19 14:11:00,
2013-02-19 06:16:00,43.7,33.2,29.77,NW,308,0.0,16.0,66,0.00,,,0.00,WUHU216DAVISVP2,2013-02-19 14:16:00,
2013-02-19 06:22:00,43.7,32.8,29.77,WNW,291,5.0,14.0,65,0.00,,,0.00,WUHU216DAVISVP2,2013-02-19 14:22:00,
2013-02-19 06:27:00,43.6,33.1,29.77,WSW,258,8.0,14.0,66,0.00,,,0.00,WUHU216DAVISVP2,2013-02-19 14:27:00,
2013-02-19 06:32:00,43.4,32.9,29.77,SW,229,9.0,19.0,66,0.00,,,0.00,WUHU216DAVISVP2,2013-02-19 14:32:00,
2013-02-19 06:37:00,43.4,32.9,29.77,WSW,248,8.0,21.0,66,0.00,,,0.00,WUHU216DAVISVP2,2013-02-19 14:37:00,
2013-02-19 06:42:00,43.4,32.9,29.77,WSW,252,10.0,21.0,66,0.00,,,0.00,WUHU216DAVISVP2,2013-02-19 14:42:00,
2013-02-19 06:47:00,43.4,32.9,29.77,SW,226,8.0,21.0,66,0.00,,,0.00,WUHU216DAVISVP2,2013-02-19 14:47:00,
2013-02-19 06:52:00,43.6,32.7,29.77,WSW,246,20.0,20.0,65,0.00,,,0.00,WUHU216DAVISVP2,2013-02-19 14:52:00,
2013-02-19 06:57:00,43.6,32.7,29.77,WSW,238,15.0,20.0,65,0.00,,,0.00,WUHU216DAVISVP2,2013-02-19 14:57:00,
2013-02-19 07:02:00,43.4,32.9,29.77,SSW,212,16.0,20.0,66,0.00,,,0.00,WUHU216DAVISVP2,2013-02-19 15:02:00,
2013-02-19 07:08:00,43.4,32.5,29.77,SW,220,14.0,20.0,65,0.00,,,0.00,WUHU216DAVISVP2,2013-02-19 15:08:00,
2013-02-19 07:13:00,43.5,32.6,29.77,WSW,247,12.0,20.0,65,0.00,,,0.00,WUHU216DAVISVP2,2013-02-19 15:13:00,
2013-02-19 07:18:00,43.7,32.4,29.77,WSW,249,11.0,20.0,64,0.00,,,0.00,WUHU216DAVISVP2,2013-02-19 15:18:00,
2013-02-19 07:24:00,43.9,32.6,29.76,SW,236,17.0,23.0,64,0.00,,,0.00,WUHU216DAVISVP2,2013-02-19 15:24:00,
2013-02-19 07:29:00,44.1,32.4,29.76,SW,227,13.0,23.0,63,0.00,,,0.00,WUHU216DAVISVP2,2013-02-19 15:29:00,
2013-02-19 07:34:00,44.4,32.3,29.76,SW,234,17.0,23.0,62,0.00,,,0.00,WUHU216DAVISVP2,2013-02-19 15:34:00,
2013-02-19 07:40:00,44.6,32.5,29.76,WSW,238,18.0,20.0,62,0.00,,,0.00,WUHU216DAVISVP2,2013-02-19 15:40:00,
2013-02-19 07:45:00,45.2,32.6,29.76,SW,219,16.0,20.0,61,0.00,,,0.00,WUHU216DAVISVP2,2013-02-19 15:45:00,
2013-02-19 07:50:00,45.9,32.4,29.76,WSW,240,15.0,21.0,59,0.00,,,0.00,WUHU216DAVISVP2,2013-02-19 15:50:00,
2013-02-19 07:55:00,46.3,32.4,29.76,SW,232,11.0,21.0,58,0.00,,,0.00,WUHU216DAVISVP2,2013-02-19 15:55:00,
2013-02-19 08:00:00,46.9,32.1,29.76,WSW,239,11.0,21.0,56,0.00,,,0.00,WUHU216DAVISVP2,2013-02-19 16:00:00,
2013-02-19 08:06:00,47.4,31.6,29.76,WSW,240,13.0,20.0,54,0.00,,,0.00,WUHU216DAVISVP2,2013-02-19 16:06:00,
2013-02-19 08:11:00,47.4,30.6,29.76,WSW,248,9.0,20.0,52,0.00,,,0.00,WUHU216DAVISVP2,2013-02-19 16:11:00,
2013-02-19 08:16:00,47.7,30.9,29.76,WSW,243,18.0,20.0,52,0.00,,,0.00,WUHU216DAVISVP2,2013-02-19 16:16:00,
2013-02-19 08:21:00,47.4,30.6,29.76,WSW,246,14.0,20.0,52,0.00,,,0.00,WUHU216DAVISVP2,2013-02-19 16:21:00,
2013-02-19 08:26:00,47.3,30.6,29.76,SW,223,10.0,20.0,52,0.00,,,0.00,WUHU216DAVISVP2,2013-02-19 16:26:00,
2013-02-19 08:32:00,47.2,30.0,29.76,WSW,238,12.0,19.0,51,0.00,,,0.00,WUHU216DAVISVP2,2013-02-19 16:32:00,
2013-02-19 08:37:00,47.3,29.6,29.76,SSW,213,8.0,19.0,50,0.00,,,0.00,WUHU216DAVISVP2,2013-02-19 16:37:00,
2013-02-19 08:42:00,47.4,29.7,29.76,SSW,198,7.0,17.0,50,0.00,,,0.00,WUHU216DAVISVP2,2013-02-19 16:42:00,
2013-02-19 08:47:00,47.3,29.6,29.76,SW,228,13.0,18.0,50,0.00,,,0.00,WUHU216DAVISVP2,2013-02-19 16:47:00,
2013-02-19 08:52:00,47.6,29.8,29.76,SW,234,13.0,18.0,50,0.00,,,0.00,WUHU216DAVISVP2,2013-02-19 16:52:00,
2013-02-19 08:58:00,47.7,29.9,29.75,WSW,245,9.0,18.0,50,0.00,,,0.00,WUHU216DAVISVP2,2013-02-19 16:58:00,
2013-02-19 09:03:00,47.8,30.0,29.75,WSW,240,11.0,18.0,50,0.00,,,0.00,WUHU216DAVISVP2,2013-02-19 17:03:00,
2013-02-19 09:08:00,47.7,29.9,29.76,WSW,240,11.0,19.0,50,0.00,,,0.00,WUHU216DAVISVP2,2013-02-19 17:08:00,
2013-02-19 09:13:00,47.2,30.0,29.76,WSW,258,13.0,20.0,51,0.00,,,0.00,WUHU216DAVISVP2,2013-02-19 17:13:00,
2013-02-19 09:18:00,46.9,30.2,29.75,SW,229,19.0,21.0,52,0.00,,,0.00,WUHU216DAVISVP2,2013-02-19 17:18:00,
2013-02-19 09:24:00,46.6,30.4,29.75,SW,229,13.0,23.0,53,0.00,,,0.00,WUHU216DAVISVP2,2013-02-19 17:24:00,
2013-02-19 09:29:00,46.9,30.7,29.75,SW,227,13.0,24.0,53,0.00,,,0.00,WUHU216DAVISVP2,2013-02-19 17:29:00,
2013-02-19 09:35:00,47.4,30.6,29.74,SW,220,19.0,24.0,52,0.00,,,0.00,WUHU216DAVISVP2,2013-02-19 17:35:00,
2013-02-19 09:40:00,47.8,30.5,29.74,SW,223,14.0,24.0,51,0.00,,,0.00,WUHU216DAVISVP2,2013-02-19 17:40:00,
2013-02-19 09:45:00,48.1,30.8,29.74,SW,219,19.0,24.0,51,0.00,,,0.00,WUHU216DAVISVP2,2013-02-19 17:45:00,
2013-02-19 09:50:00,48.4,30.6,29.74,SW,228,19.0,25.0,50,0.00,,,0.00,WUHU216DAVISVP2,2013-02-19 17:50:00,
2013-02-19 09:55:00,48.1,30.3,29.73,SW,232,22.0,25.0,50,0.00,,,0.00,WUHU216DAVISVP2,2013-02-19 17:55:00,
2013-02-19 10:00:00,48.1,30.3,29.73,SW,232,18.0,27.0,50,0.00,,,0.00,WUHU216DAVISVP2,2013-02-19 18:00:00,
2013-02-19 10:06:00,48.1,30.8,29.73,SW,229,18.0,31.0,51,0.00,,,0.00,WUHU216DAVISVP2,2013-02-19 18:06:00,
2013-02-19 10:11:00,48.3,30.5,29.73,SW,227,27.0,31.0,50,0.00,,,0.00,WUHU216DAVISVP2,2013-02-19 18:11:00,
2013-02-19 10:17:00,48.0,30.7,29.74,WSW,244,25.0,31.0,51,0.00,,,0.00,WUHU216DAVISVP2,2013-02-19 18:17:00,
2013-02-19 10:22:00,48.3,30.5,29.73,SW,232,21.0,29.0,50,0.00,,,0.00,WUHU216DAVISVP2,2013-02-19 18:22:00,
2013-02-19 10:27:00,48.3,30.5,29.73,SW,223,11.0,29.0,50,0.00,,,0.00,WUHU216DAVISVP2,2013-02-19 18:27:00,
2013-02-19 10:32:00,48.9,30.6,29.74,SSW,209,23.0,29.0,49,0.00,,,0.00,WUHU216DAVISVP2,2013-02-19 18:32:00,
2013-02-19 10:37:00,48.7,30.4,29.73,SSW,207,24.0,31.0,49,0.00,,,0.00,WUHU216DAVISVP2,2013-02-19 18:37:00,
2013-02-19 10:43:00,47.7,29.9,29.73,WSW,250,25.0,32.0,50,0.00,,,0.00,WUHU216DAVISVP2,2013-02-19 18:43:00,
2013-02-19 10:48:00,47.6,29.8,29.73,SSW,213,23.0,32.0,50,0.00,,,0.00,WUHU216DAVISVP2,2013-02-19 18:48:00,
2013-02-19 10:53:00,47.1,29.9,29.73,SW,217,23.0,32.0,51,0.00,,,0.00,WUHU216DAVISVP2,2013-02-19 18:53:00,
2013-02-19 10:58:00,47.5,29.7,29.73,SW,224,17.0,32.0,50,0.00,,,0.00,WUHU216DAVISVP2,2013-02-19 18:58:00,
2013-02-19 11:03:00,47.5,29.7,29.73,SSW,206,29.0,32.0,50,0.00,,,0.00,WUHU216DAVISVP2,2013-02-19 19:03:00,
2013-02-19 11:09:00,47.3,30.1,29.73,South,189,14.0,37.0,51,0.00,,,0.00,WUHU216DAVISVP2,2013-02-19 19:09:00,
2013-02-19 11:14:00,47.6,30.3,29.73,SW,230,24.0,37.0,51,0.00,,,0.00,WUHU216DAVISVP2,2013-02-19 19:14:00,
2013-02-19 11:19:00,48.1,30.3,29.72,SSW,200,17.0,37.0,50,0.00,,,0.00,WUHU216DAVISVP2,2013-02-19 19:19:00,
2013-02-19 11:24:00,47.6,29.8,29.72,WSW,240,19.0,34.0,50,0.00,,,0.00,WUHU216DAVISVP2,2013-02-19 19:24:00,
2013-02-19 11:30:00,47.4,29.7,29.72,WSW,243,26.0,32.0,50,0.00,,,0.00,WUHU216DAVISVP2,2013-02-19 19:30:00,
2013-02-19 11:35:00,47.2,29.5,29.72,WSW,248,23.0,33.0,50,0.00,,,0.00,WUHU216DAVISVP2,2013-02-19 19:35:00,
2013-02-19 11:40:00,47.6,29.3,29.71,SW,235,18.0,33.0,49,0.00,,,0.00,WUHU216DAVISVP2,2013-02-19 19:40:00,
2013-02-19 11:45:00,47.6,28.8,29.71,West,261,16.0,33.0,48,0.00,,,0.00,WUHU216DAVISVP2,2013-02-19 19:45:00,
2013-02-19 11:51:00,48.0,28.2,29.71,SW,215,12.0,31.0,46,0.00,,,0.00,WUHU216DAVISVP2,2013-02-19 19:51:00,
2013-02-19 11:57:00,48.2,27.8,29.70,SW,228,19.0,31.0,45,0.00,,,0.00,WUHU216DAVISVP2,2013-02-19 19:57:00,
2013-02-19 12:02:00,48.2,27.8,29.70,WSW,242,20.0,30.0,45,0.00,,,0.00,WUHU216DAVISVP2,2013-02-19 20:02:00,
2013-02-19 12:07:00,48.5,27.6,29.70,West,264,22.0,30.0,44,0.00,,,0.00,WUHU216DAVISVP2,2013-02-19 20:07:00,
2013-02-19 12:13:00,49.0,27.5,29.70,SW,229,14.0,30.0,43,0.00,,,0.00,WUHU216DAVISVP2,2013-02-19 20:13:00,
2013-02-19 12:18:00,48.6,27.0,29.69,WSW,250,17.0,30.0,43,0.00,,,0.00,WUHU216DAVISVP2,2013-02-19 20:18:00,
2013-02-19 12:23:00,48.2,27.2,29.69,SW,221,21.0,28.0,44,0.00,,,0.00,WUHU216DAVISVP2,2013-02-19 20:23:00,
2013-02-19 12:28:00,47.9,27.5,29.69,WSW,254,19.0,30.0,45,0.00,,,0.00,WUHU216DAVISVP2,2013-02-19 20:28:00,
2013-02-19 12:33:00,47.5,27.1,29.69,SW,214,18.0,30.0,45,0.00,,,0.00,WUHU216DAVISVP2,2013-02-19 20:33:00,
2013-02-19 12:38:00,47.4,27.5,29.69,SW,222,16.0,29.0,46,0.00,,,0.00,WUHU216DAVISVP2,2013-02-19 20:38:00,
2013-02-19 12:43:00,47.5,27.1,29.68,SW,217,17.0,29.0,45,0.00,,,0.00,WUHU216DAVISVP2,2013-02-19 20:43:00,
2013-02-19 12:49:00,47.3,26.9,29.68,SSW,199,19.0,29.0,45,0.00,,,0.00,WUHU216DAVISVP2,2013-02-19 20:49:00,
2013-02-19 12:54:00,47.1,27.4,29.68,WSW,252,15.0,27.0,46,0.00,,,0.00,WUHU216DAVISVP2,2013-02-19 20:54:00,
2013-02-19 13:00:00,47.1,26.8,29.68,WSW,246,9.0,30.0,45,0.00,,,0.00,WUHU216DAVISVP2,2013-02-19 21:00:00,
2013-02-19 13:05:00,47.1,26.8,29.67,SSW,200,11.0,30.0,45,0.00,,,0.00,WUHU216DAVISVP2,2013-02-19 21:05:00,
2013-02-19 13:10:00,47.3,27.0,29.67,SW,232,13.0,30.0,45,0.00,,,0.00,WUHU216DAVISVP2,2013-02-19 21:10:00,
2013-02-19 13:15:00,47.3,26.5,29.67,SW,214,23.0,33.0,44,0.00,,,0.00,WUHU216DAVISVP2,2013-02-19 21:15:00,
2013-02-19 13:20:00,47.3,27.5,29.67,SW,227,19.0,33.0,46,0.00,,,0.00,WUHU216DAVISVP2,2013-02-19 21:20:00,
2013-02-19 13:25:00,46.9,26.6,29.67,West,260,17.0,37.0,45,0.00,,,0.00,WUHU216DAVISVP2,2013-02-19 21:25:00,
2013-02-19 13:30:00,46.4,26.7,29.67,SW,225,31.0,37.0,46,0.00,,,0.00,WUHU216DAVISVP2,2013-02-19 21:30:00,
2013-02-19 13:36:00,46.5,26.8,29.67,SW,229,17.0,37.0,46,0.00,,,0.00,WUHU216DAVISVP2,2013-02-19 21:36:00,
2013-02-19 13:41:00,46.1,27.5,29.67,SW,234,23.0,37.0,48,0.00,,,0.00,WUHU216DAVISVP2,2013-02-19 21:41:00,
2013-02-19 13:46:00,45.7,28.1,29.67,SSW,202,25.0,35.0,50,0.00,,,0.00,WUHU216DAVISVP2,2013-02-19 21:46:00,
2013-02-19 13:51:00,45.4,28.3,29.67,SW,221,19.0,35.0,51,0.00,,,0.00,WUHU216DAVISVP2,2013-02-19 21:51:00,
2013-02-19 13:58:00,45.0,28.4,29.68,SSW,211,22.0,35.0,52,0.00,,,0.00,WUHU216DAVISVP2,2013-02-19 21:58:00,
2013-02-19 14:03:00,44.9,28.3,29.67,SSW,211,25.0,36.0,52,0.00,,,0.00,WUHU216DAVISVP2,2013-02-19 22:03:00,
2013-02-19 14:08:00,44.8,27.7,29.67,SW,227,22.0,42.0,51,0.00,,,0.00,WUHU216DAVISVP2,2013-02-19 22:08:00,
2013-02-19 14:14:00,44.7,28.1,29.68,SW,226,23.0,42.0,52,0.00,,,0.00,WUHU216DAVISVP2,2013-02-19 22:14:00,
2013-02-19 14:19:00,44.5,28.4,29.68,SSW,205,18.0,42.0,53,0.00,,,0.00,WUHU216DAVISVP2,2013-02-19 22:19:00,
2013-02-19 14:24:00,44.6,28.0,29.68,WSW,242,15.0,42.0,52,0.00,,,0.00,WUHU216DAVISVP2,2013-02-19 22:24:00,
2013-02-19 14:29:00,44.7,27.2,29.67,SW,221,22.0,39.0,50,0.00,,,0.00,WUHU216DAVISVP2,2013-02-19 22:29:00,
2013-02-19 14:34:00,45.1,26.5,29.67,SSW,207,24.0,29.0,48,0.00,,,0.00,WUHU216DAVISVP2,2013-02-19 22:34:00,
2013-02-19 14:40:00,45.4,27.3,29.67,SW,221,23.0,31.0,49,0.00,,,0.00,WUHU216DAVISVP2,2013-02-19 22:40:00,
2013-02-19 14:45:00,45.8,26.6,29.66,SW,219,19.0,31.0,47,0.00,,,0.00,WUHU216DAVISVP2,2013-02-19 22:45:00,
2013-02-19 14:50:00,46.4,22.6,29.66,WSW,238,26.0,31.0,39,0.00,,,0.00,WUHU216DAVISVP2,2013-02-19 22:50:00,
2013-02-19 14:55:00,46.7,24.7,29.66,SW,233,17.0,32.0,42,0.00,,,0.00,WUHU216DAVISVP2,2013-02-19 22:55:00,
2013-02-19 15:01:00,46.7,23.0,29.66,WSW,247,13.0,32.0,39,0.00,,,0.00,WUHU216DAVISVP2,2013-02-19 23:01:00,
2013-02-19 15:06:00,46.7,23.0,29.66,WSW,240,17.0,32.0,39,0.00,,,0.00,WUHU216DAVISVP2,2013-02-19 23:06:00,
2013-02-19 15:11:00,46.6,21.0,29.66,WSW,238,23.0,33.0,36,0.00,,,0.00,WUHU216DAVISVP2,2013-02-19 23:11:00,
2013-02-19 15:17:00,46.6,21.7,29.67,SW,230,21.0,35.0,37,0.00,,,0.00,WUHU216DAVISVP2,2013-02-19 23:17:00,
2013-02-19 15:22:00,46.6,20.4,29.67,SW,227,20.0,35.0,35,0.00,,,0.00,WUHU216DAVISVP2,2013-02-19 23:22:00,
2013-02-19 15:27:00,46.5,20.9,29.67,SW,224,20.0,35.0,36,0.00,,,0.00,WUHU216DAVISVP2,2013-02-19 23:27:00,
2013-02-19 15:32:00,46.2,20.7,29.66,WSW,238,28.0,38.0,36,0.00,,,0.00,WUHU216DAVISVP2,2013-02-19 23:32:00,
2013-02-19 15:39:00,46.4,20.9,29.66,SW,223,25.0,38.0,36,0.00,,,0.00,WUHU216DAVISVP2,2013-02-19 23:39:00,
2013-02-19 15:44:00,46.3,20.8,29.66,SW,226,17.0,38.0,36,0.00,,,0.00,WUHU216DAVISVP2,2013-02-19 23:44:00,
2013-02-19 15:49:00,46.1,20.6,29.66,SW,236,19.0,34.0,36,0.00,,,0.00,WUHU216DAVISVP2,2013-02-19 23:49:00,
2013-02-19 15:54:00,46.3,20.6,29.66,WSW,241,22.0,33.0,36,0.00,,,0.00,WUHU216DAVISVP2,2013-02-19 23:54:00,
2013-02-19 15:59:00,46.2,19.1,29.65,WSW,238,17.0,37.0,34,0.00,,,0.00,WUHU216DAVISVP2,2013-02-19 23:59:00,
2013-02-19 16:05:00,46.2,19.8,29.65,WSW,250,16.0,37.0,35,0.00,,,0.00,WUHU216DAVISVP2,2013-02-20 00:05:00,
2013-02-19 16:10:00,45.9,20.2,29.64,WSW,241,20.0,37.0,36,0.00,,,0.00,WUHU216DAVISVP2,2013-02-20 00:10:00,
2013-02-19 16:15:00,45.9,20.2,29.64,SW,229,10.0,29.0,36,0.00,,,0.00,WUHU216DAVISVP2,2013-02-20 00:15:00,
2013-02-19 16:20:00,46.3,19.9,29.64,SW,216,10.0,29.0,35,0.00,,,0.00,WUHU216DAVISVP2,2013-02-20 00:20:00,
2013-02-19 16:25:00,47.0,19.1,29.64,SW,228,16.0,29.0,33,0.00,,,0.00,WUHU216DAVISVP2,2013-02-20 00:25:00,
2013-02-19 16:30:00,46.5,19.4,29.64,SW,214,18.0,24.0,34,0.00,,,0.00,WUHU216DAVISVP2,2013-02-20 00:30:00,
2013-02-19 16:35:00,46.0,20.3,29.64,SW,216,18.0,22.0,36,0.00,,,0.00,WUHU216DAVISVP2,2013-02-20 00:35:00,
2013-02-19 16:41:00,45.7,20.0,29.64,SW,231,10.0,28.0,36,0.00,,,0.00,WUHU216DAVISVP2,2013-02-20 00:41:00,
2013-02-19 16:46:00,45.7,20.7,29.64,WSW,246,15.0,28.0,37,0.00,,,0.00,WUHU216DAVISVP2,2013-02-20 00:46:00,
2013-02-19 16:51:00,45.7,21.3,29.63,SW,227,16.0,28.0,38,0.00,,,0.00,WUHU216DAVISVP2,2013-02-20 00:51:00,
2013-02-19 16:56:00,45.7,21.3,29.63,WSW,238,17.0,28.0,38,0.00,,,0.00,WUHU216DAVISVP2,2013-02-20 00:56:00,
2013-02-19 17:10:00,45.5,21.1,29.64,SW,218,17.0,26.0,38,0.00,,,0.00,WUHU216DAVISVP2,2013-02-20 01:10:00,
2013-02-19 17:19:00,44.9,23.6,29.64,SW,234,16.0,20.0,43,0.00,,,0.00,WUHU216DAVISVP2,2013-02-20 01:19:00,
2013-02-19 17:25:00,44.7,23.4,29.63,SW,236,16.0,22.0,43,0.00,,,0.00,WUHU216DAVISVP2,2013-02-20 01:25:00,
2013-02-19 17:30:00,44.5,22.1,29.63,SW,225,17.0,22.0,41,0.00,,,0.00,WUHU216DAVISVP2,2013-02-20 01:30:00,
2013-02-19 17:35:00,44.5,22.1,29.63,SSW,212,18.0,22.0,41,0.00,,,0.00,WUHU216DAVISVP2,2013-02-20 01:35:00,
2013-02-19 17:40:00,44.5,22.1,29.63,SSW,211,13.0,22.0,41,0.00,,,0.00,WUHU216DAVISVP2,2013-02-20 01:40:00,
2013-02-19 17:45:00,44.4,22.0,29.63,SW,222,20.0,22.0,41,0.00,,,0.00,WUHU216DAVISVP2,2013-02-20 01:45:00,
2013-02-19 17:50:00,44.3,22.1,29.64,WSW,241,10.0,22.0,41,0.00,,,0.00,WUHU216DAVISVP2,2013-02-20 01:50:00,
2013-02-19 17:55:00,44.3,22.1,29.64,SW,234,15.0,22.0,41,0.00,,,0.00,WUHU216DAVISVP2,2013-02-20 01:55:00,
2013-02-19 18:00:00,44.2,22.5,29.64,WSW,242,13.0,23.0,42,0.00,,,0.00,WUHU216DAVISVP2,2013-02-20 02:00:00,
2013-02-19 18:05:00,44.1,22.4,29.64,SW,226,14.0,23.0,42,0.00,,,0.00,WUHU216DAVISVP2,2013-02-20 02:05:00,
2013-02-19 18:10:00,43.8,23.3,29.64,WSW,237,14.0,23.0,44,0.00,,,0.00,WUHU216DAVISVP2,2013-02-20 02:10:00,
2013-02-19 18:16:00,43.6,24.2,29.64,SW,233,14.0,22.0,46,0.00,,,0.00,WUHU216DAVISVP2,2013-02-20 02:16:00,
2013-02-19 18:21:00,43.3,24.4,29.64,WSW,253,10.0,22.0,47,0.00,,,0.00,WUHU216DAVISVP2,2013-02-20 02:21:00,
2013-02-19 18:26:00,42.8,24.9,29.64,WSW,244,9.0,18.0,49,0.00,,,0.00,WUHU216DAVISVP2,2013-02-20 02:26:00,
2013-02-19 18:32:00,42.4,26.0,29.64,WSW,254,11.0,17.0,52,0.00,,,0.00,WUHU216DAVISVP2,2013-02-20 02:32:00,
2013-02-19 18:37:00,42.0,26.1,29.64,West,267,7.0,17.0,53,0.00,,,0.00,WUHU216DAVISVP2,2013-02-20 02:37:00,
2013-02-19 18:42:00,41.8,26.4,29.64,West,262,9.0,17.0,54,0.00,,,0.00,WUHU216DAVISVP2,2013-02-20 02:42:00,
2013-02-19 18:47:00,41.6,26.6,29.64,WSW,241,8.0,17.0,55,0.00,,,0.00,WUHU216DAVISVP2,2013-02-20 02:47:00,
2013-02-19 18:53:00,41.6,26.6,29.63,WSW,240,11.0,16.0,55,0.00,,,0.00,WUHU216DAVISVP2,2013-02-20 02:53:00,
2013-02-19 18:58:00,41.5,27.0,29.64,WSW,246,8.0,15.0,56,0.00,,,0.00,WUHU216DAVISVP2,2013-02-20 02:58:00,
2013-02-19 19:03:00,41.5,27.0,29.64,SW,227,8.0,13.0,56,0.00,,,0.00,WUHU216DAVISVP2,2013-02-20 03:03:00,
2013-02-19 19:08:00,41.4,26.9,29.63,SSW,213,7.0,15.0,56,0.00,,,0.00,WUHU216DAVISVP2,2013-02-20 03:08:00,
2013-02-19 19:13:00,41.4,26.9,29.63,SW,226,10.0,15.0,56,0.00,,,0.00,WUHU216DAVISVP2,2013-02-20 03:13:00,
2013-02-19 19:19:00,41.4,26.9,29.64,SW,217,11.0,15.0,56,0.00,,,0.00,WUHU216DAVISVP2,2013-02-20 03:19:00,
2013-02-19 19:24:00,41.6,27.1,29.63,SSW,205,9.0,15.0,56,0.00,,,0.00,WUHU216DAVISVP2,2013-02-20 03:24:00,
2013-02-19 19:29:00,41.8,27.3,29.63,WSW,239,6.0,17.0,56,0.00,,,0.00,WUHU216DAVISVP2,2013-02-20 03:29:00,
2013-02-19 19:34:00,41.7,27.6,29.63,West,266,7.0,17.0,57,0.00,,,0.00,WUHU216DAVISVP2,2013-02-20 03:34:00,
2013-02-19 19:39:00,41.5,27.9,29.63,WSW,256,15.0,17.0,58,0.00,,,0.00,WUHU216DAVISVP2,2013-02-20 03:39:00,
2013-02-19 19:45:00,41.2,28.8,29.63,West,265,13.0,19.0,61,0.00,,,0.00,WUHU216DAVISVP2,2013-02-20 03:45:00,
2013-02-19 19:50:00,40.9,29.3,29.63,SW,227,10.0,20.0,63,0.00,,,0.00,WUHU216DAVISVP2,2013-02-20 03:50:00,
2013-02-19 19:55:00,40.8,29.6,29.63,SW,225,11.0,20.0,64,0.00,,,0.00,WUHU216DAVISVP2,2013-02-20 03:55:00,
2013-02-19 20:01:00,40.6,29.8,29.62,SSW,211,6.0,20.0,65,0.00,,,0.00,WUHU216DAVISVP2,2013-02-20 04:01:00,
2013-02-19 20:06:00,40.4,29.6,29.61,SSW,210,3.0,20.0,65,0.00,,,0.00,WUHU216DAVISVP2,2013-02-20 04:06:00,
2013-02-19 20:11:00,40.3,29.5,29.61,SSE,161,6.0,20.0,65,0.00,,,0.00,WUHU216DAVISVP2,2013-02-20 04:11:00,
2013-02-19 20:16:00,40.5,28.6,29.61,South,179,8.0,12.0,62,0.00,,,0.00,WUHU216DAVISVP2,2013-02-20 04:16:00,
2013-02-19 20:22:00,40.6,28.7,29.61,SSW,194,6.0,12.0,62,0.00,,,0.00,WUHU216DAVISVP2,2013-02-20 04:22:00,
2013-02-19 20:27:00,40.6,28.7,29.61,South,186,4.0,12.0,62,0.00,,,0.00,WUHU216DAVISVP2,2013-02-20 04:27:00,
2013-02-19 20:32:00,40.5,29.0,29.61,South,180,5.0,12.0,63,0.00,,,0.00,WUHU216DAVISVP2,2013-02-20 04:32:00,
2013-02-19 20:37:00,40.5,29.4,29.61,SSE,162,7.0,10.0,64,0.00,,,0.00,WUHU216DAVISVP2,2013-02-20 04:37:00,
2013-02-19 20:42:00,40.3,30.3,29.61,SSE,147,6.0,9.0,67,0.00,,,0.00,WUHU216DAVISVP2,2013-02-20 04:42:00,
2013-02-19 20:48:00,39.9,30.6,29.62,SSE,163,7.0,11.0,69,0.00,,,0.00,WUHU216DAVISVP2,2013-02-20 04:48:00,
2013-02-19 20:53:00,39.7,30.8,29.63,South,186,12.0,14.0,70,0.00,,,0.00,WUHU216DAVISVP2,2013-02-20 04:53:00,
2013-02-19 20:58:00,38.9,31.0,29.63,SSW,207,7.0,17.0,73,0.00,,,0.00,WUHU216DAVISVP2,2013-02-20 04:58:00,
2013-02-19 21:03:00,38.2,30.6,29.62,South,178,15.0,17.0,74,0.01,,,0.01,WUHU216DAVISVP2,2013-02-20 05:03:00,
2013-02-19 21:08:00,37.6,30.4,29.62,SW,222,12.0,17.0,75,0.01,,,0.01,WUHU216DAVISVP2,2013-02-20 05:08:00,
2013-02-19 21:13:00,36.9,30.0,29.61,West,261,6.0,17.0,76,0.01,,,0.01,WUHU216DAVISVP2,2013-02-20 05:13:00,
2013-02-19 21:19:00,36.6,30.1,29.61,SW,230,17.0,22.0,77,0.01,,,0.01,WUHU216DAVISVP2,2013-02-20 05:19:00,
2013-02-19 21:24:00,37.1,30.3,29.60,SW,227,17.0,22.0,76,0.01,,,0.01,WUHU216DAVISVP2,2013-02-20 05:24:00,
2013-02-19 21:29:00,37.8,29.6,29.60,SW,236,22.0,23.0,72,0.01,,,0.01,WUHU216DAVISVP2,2013-02-20 05:29:00,
2013-02-19 21:34:00,38.0,29.2,29.60,WSW,252,12.0,24.0,70,0.01,,,0.01,WUHU216DAVISVP2,2013-02-20 05:34:00,
2013-02-19 21:40:00,38.2,29.0,29.61,West,259,14.0,24.0,69,0.01,,,0.01,WUHU216DAVISVP2,2013-02-20 05:40:00,
2013-02-19 21:45:00,38.3,28.7,29.61,West,265,13.0,24.0,68,0.01,,,0.01,WUHU216DAVISVP2,2013-02-20 05:45:00,
2013-02-19 21:50:00,38.2,29.0,29.61,WSW,253,5.0,24.0,69,0.01,,,0.01,WUHU216DAVISVP2,2013-02-20 05:50:00,
2013-02-19 21:55:00,38.3,29.1,29.60,WNW,292,4.0,20.0,69,0.01,,,0.01,WUHU216DAVISVP2,2013-02-20 05:55:00,
2013-02-19 22:01:00,38.4,29.1,29.60,WNW,293,3.0,20.0,69,0.01,,,0.01,WUHU216DAVISVP2,2013-02-20 06:01:00,
2013-02-19 22:06:00,38.5,29.2,29.60,WNW,283,4.0,9.0,69,0.00,,,0.01,WUHU216DAVISVP2,2013-02-20 06:06:00,
2013-02-19 22:11:00,38.6,29.3,29.60,WNW,283,3.0,8.0,69,0.00,,,0.01,WUHU216DAVISVP2,2013-02-20 06:11:00,
2013-02-19 22:16:00,38.7,28.7,29.59,WNW,286,5.0,9.0,67,0.00,,,0.01,WUHU216DAVISVP2,2013-02-20 06:16:00,
2013-02-19 22:21:00,38.9,27.4,29.59,WSW,254,5.0,13.0,63,0.00,,,0.01,WUHU216DAVISVP2,2013-02-20 06:21:00,
2013-02-19 22:26:00,39.1,27.6,29.59,WSW,249,6.0,13.0,63,0.00,,,0.01,WUHU216DAVISVP2,2013-02-20 06:26:00,
2013-02-19 22:31:00,38.9,27.1,29.59,West,279,6.0,15.0,62,0.00,,,0.01,WUHU216DAVISVP2,2013-02-20 06:31:00,
2013-02-19 22:37:00,38.6,26.8,29.59,WNW,301,6.0,15.0,62,0.00,,,0.01,WUHU216DAVISVP2,2013-02-20 06:37:00,
2013-02-19 22:42:00,38.3,26.9,29.59,West,271,11.0,16.0,63,0.00,,,0.01,WUHU216DAVISVP2,2013-02-20 06:42:00,
2013-02-19 22:47:00,37.9,26.5,29.59,WSW,243,8.0,16.0,63,0.00,,,0.01,WUHU216DAVISVP2,2013-02-20 06:47:00,
2013-02-19 22:53:00,37.8,26.4,29.59,WSW,241,7.0,20.0,63,0.00,,,0.01,WUHU216DAVISVP2,2013-02-20 06:53:00,
2013-02-19 22:58:00,37.7,25.9,29.59,SW,227,9.0,20.0,62,0.00,,,0.01,WUHU216DAVISVP2,2013-02-20 06:58:00,
2013-02-19 23:03:00,37.7,26.3,29.59,SW,215,2.0,20.0,63,0.00,,,0.01,WUHU216DAVISVP2,2013-02-20 07:03:00,
2013-02-19 23:09:00,37.5,26.1,29.59,SW,217,7.0,20.0,63,0.00,,,0.01,WUHU216DAVISVP2,2013-02-20 07:09:00,
2013-02-19 23:14:00,37.5,25.7,29.59,WSW,240,10.0,17.0,62,0.00,,,0.01,WUHU216DAVISVP2,2013-02-20 07:14:00,
2013-02-19 23:19:00,37.5,25.7,29.58,West,261,6.0,13.0,62,0.00,,,0.01,WUHU216DAVISVP2,2013-02-20 07:19:00,
2013-02-19 23:24:00,37.6,25.4,29.58,West,280,10.0,15.0,61,0.00,,,0.01,WUHU216DAVISVP2,2013-02-20 07:24:00,
2013-02-19 23:30:00,38.0,25.0,29.58,WSW,254,11.0,17.0,59,0.00,,,0.01,WUHU216DAVISVP2,2013-02-20 07:30:00,
2013-02-19 23:35:00,38.0,25.0,29.57,WSW,238,9.0,17.0,59,0.00,,,0.01,WUHU216DAVISVP2,2013-02-20 07:35:00,
2013-02-19 23:40:00,38.0,24.1,29.57,WSW,248,11.0,18.0,57,0.00,,,0.01,WUHU216DAVISVP2,2013-02-20 07:40:00,
2013-02-19 23:45:00,38.2,23.9,29.58,WSW,248,15.0,22.0,56,0.00,,,0.01,WUHU216DAVISVP2,2013-02-20 07:45:00,
2013-02-19 23:50:00,38.2,23.0,29.57,WSW,238,15.0,23.0,54,0.00,,,0.01,WUHU216DAVISVP2,2013-02-20 07:50:00,
2013-02-19 23:55:00,38.0,23.7,29.57,WSW,251,18.0,23.0,56,0.00,,,0.01,WUHU216DAVISVP2,2013-02-20 07:55:00,